Time;durP1;ratioP1;P1;durP2;ratioP2;P2;SDS_P1;SDS_P2;PMS_P1;PMS_P2;Temp;Humidity;BMP_temperature;BMP_pressure;BME280_temperature;BME280_humidity;BME280_pressure;Samples;Min_cycle;Max_cycle;Signal;HPM_P1;HPM_P2
2021/04/06 00:01:46;;;;;;;5.20;1.88;;;3.90;76.60;;;;;;5094303;28;20291;-76
2021/04/06 00:04:19;;;;;;;7.30;1.63;;;4.00;76.20;;;;;;5096817;28;20172;-76
2021/04/06 00:06:49;;;;;;;6.97;1.92;;;4.00;74.80;;;;;;5097253;28;20179;-76
2021/04/06 00:09:19;;;;;;;12.90;2.08;;;4.00;74.70;;;;;;5097454;28;20156;-76
2021/04/06 00:11:47;;;;;;;6.93;2.00;;;4.10;74.60;;;;;;5102704;28;20289;-76
2021/04/06 00:14:15;;;;;;;9.45;2.40;;;4.10;74.60;;;;;;5116274;28;20201;-76
2021/04/06 00:16:43;;;;;;;7.05;1.92;;;4.10;74.40;;;;;;5115688;28;20183;-76
2021/04/06 00:19:11;;;;;;;8.15;1.80;;;4.10;74.50;;;;;;5120079;28;20254;-76
2021/04/06 00:21:38;;;;;;;2.40;1.52;;;4.10;74.70;;;;;;5116128;28;20187;-77
2021/04/06 00:24:05;;;;;;;9.65;1.80;;;4.10;74.40;;;;;;5116013;28;20183;-76
2021/04/06 00:27:09;;;;;;;5.03;2.38;;;4.10;74.60;;;;;;5113511;28;20273;-76
2021/04/06 00:29:36;;;;;;;11.88;3.90;;;4.20;74.50;;;;;;5115025;28;20535;-75
2021/04/06 00:32:05;;;;;;;8.20;2.70;;;4.20;74.70;;;;;;5116209;28;20195;-76
2021/04/06 00:34:32;;;;;;;10.18;2.03;;;4.10;74.90;;;;;;5115992;28;20237;-77
2021/04/06 00:37:05;;;;;;;7.20;2.90;;;4.10;74.80;;;;;;5116720;28;20212;-76
2021/04/06 00:39:36;;;;;;;8.63;2.17;;;4.20;75.00;;;;;;5115949;28;20251;-76
2021/04/06 00:42:29;;;;;;;6.55;2.03;;;4.30;75.00;;;;;;5114187;28;20681;-77
2021/04/06 00:45:09;;;;;;;8.82;1.98;;;4.30;74.90;;;;;;5112509;28;20212;-76
2021/04/06 00:47:35;;;;;;;15.70;2.13;;;4.30;75.10;;;;;;5115519;28;20235;-76
2021/04/06 00:50:10;;;;;;;13.30;2.65;;;4.20;75.20;;;;;;5113740;28;20284;-76
2021/04/06 00:52:44;;;;;;;16.67;3.42;;;4.20;75.50;;;;;;5113207;28;20199;-76
2021/04/06 00:55:19;;;;;;;8.30;2.20;;;4.20;75.50;;;;;;5115060;28;20159;-76
2021/04/06 00:57:46;;;;;;;11.73;3.00;;;4.10;73.40;;;;;;5113873;28;20182;-77
2021/04/06 01:00:15;;;;;;;14.85;2.78;;;4.10;73.00;;;;;;5113593;28;20171;-77
2021/04/06 01:03:06;;;;;;;9.80;2.50;;;4.20;73.30;;;;;;5113050;28;20191;-77
2021/04/06 01:05:35;;;;;;;5.15;1.92;;;4.20;72.60;;;;;;5114931;28;20156;-77
2021/04/06 01:08:04;;;;;;;11.95;1.92;;;4.20;71.90;;;;;;5113796;28;20255;-77
2021/04/06 01:10:32;;;;;;;13.38;2.50;;;4.20;71.00;;;;;;5114549;28;20638;-77
2021/04/06 01:12:58;;;;;;;10.57;2.72;;;4.30;70.20;;;;;;5097207;28;20643;-77
2021/04/06 01:15:25;;;;;;;5.95;2.05;;;4.30;70.30;;;;;;5093659;28;20210;-76
2021/04/06 01:17:52;;;;;;;7.78;2.42;;;4.30;70.60;;;;;;5094381;28;20657;-76
2021/04/06 01:20:20;;;;;;;16.05;3.08;;;4.30;70.90;;;;;;5092939;28;20175;-76
2021/04/06 01:22:47;;;;;;;16.45;3.05;;;4.30;71.00;;;;;;5093574;28;20191;-77
2021/04/06 01:25:25;;;;;;;13.43;3.10;;;4.40;71.10;;;;;;5092857;28;20707;-77
2021/04/06 01:28:03;;;;;;;9.02;2.85;;;4.30;70.90;;;;;;5092683;28;20171;-77
2021/04/06 01:30:43;;;;;;;12.27;2.38;;;4.40;71.10;;;;;;5093540;28;20152;-77
2021/04/06 01:33:11;;;;;;;12.25;2.72;;;4.40;71.10;;;;;;5092487;28;20698;-77
2021/04/06 01:35:37;;;;;;;13.55;2.88;;;4.30;71.50;;;;;;5093964;28;20186;-77
2021/04/06 01:38:02;;;;;;;21.42;3.67;;;4.40;71.60;;;;;;5092287;28;20721;-77
2021/04/06 01:40:29;;;;;;;4.87;2.83;;;4.30;71.90;;;;;;5092077;28;20225;-77
2021/04/06 01:42:55;;;;;;;8.32;2.85;;;4.20;71.70;;;;;;5092487;28;20445;-77
2021/04/06 01:45:21;;;;;;;11.40;2.73;;;4.20;71.80;;;;;;5092472;28;20180;-77
2021/04/06 01:47:48;;;;;;;22.75;3.17;;;4.20;71.90;;;;;;5093549;28;20418;-77
2021/04/06 01:50:15;;;;;;;19.60;3.53;;;4.20;71.30;;;;;;5092222;28;20281;-77
2021/04/06 01:52:45;;;;;;;11.60;3.42;;;4.30;71.40;;;;;;5091751;28;20227;-77
2021/04/06 01:55:16;;;;;;;12.15;2.22;;;4.40;71.20;;;;;;5093426;28;20172;-77
2021/04/06 01:57:49;;;;;;;7.68;2.05;;;4.30;71.90;;;;;;5093071;28;20164;-77
2021/04/06 02:00:32;;;;;;;6.10;2.05;;;4.00;73.70;;;;;;5112438;28;20167;-77
2021/04/06 02:03:05;;;;;;;6.50;2.03;;;3.70;75.10;;;;;;5113822;28;20718;-77
2021/04/06 02:05:31;;;;;;;11.93;1.88;;;3.50;76.10;;;;;;5113625;28;20159;-76
2021/04/06 02:08:07;;;;;;;13.77;2.67;;;3.50;77.20;;;;;;5115337;28;20205;-76
2021/04/06 02:10:33;;;;;;;7.75;1.90;;;3.40;78.10;;;;;;5113339;28;20166;-77
2021/04/06 02:13:11;;;;;;;6.07;2.38;;;3.60;78.40;;;;;;5094743;28;20204;-77
2021/04/06 02:15:39;;;;;;;7.70;2.80;;;3.40;78.10;;;;;;5093402;28;20522;-77
2021/04/06 02:18:05;;;;;;;7.93;2.75;;;3.50;78.20;;;;;;5091875;28;20182;-77
2021/04/06 02:20:31;;;;;;;12.07;3.07;;;3.50;78.00;;;;;;5091302;28;20172;-78
2021/04/06 02:22:59;;;;;;;7.03;2.50;;;3.50;77.60;;;;;;5093033;28;20195;-78
2021/04/06 02:25:26;;;;;;;4.13;1.75;;;3.50;77.50;;;;;;5092067;28;20929;-77
2021/04/06 02:27:52;;;;;;;8.32;2.28;;;3.50;77.00;;;;;;5093260;28;20179;-77
2021/04/06 02:30:18;;;;;;;8.90;2.23;;;3.60;76.70;;;;;;5091577;28;20593;-77
2021/04/06 02:32:44;;;;;;;8.23;1.80;;;3.60;76.50;;;;;;5092586;28;20196;-77
2021/04/06 02:35:12;;;;;;;7.67;1.83;;;3.60;76.30;;;;;;5093088;28;20660;-77
2021/04/06 02:37:42;;;;;;;15.25;3.13;;;3.70;76.60;;;;;;5091860;28;20463;-78
2021/04/06 02:40:14;;;;;;;12.10;2.50;;;3.80;76.50;;;;;;5093413;28;20194;-77
2021/04/06 02:42:50;;;;;;;10.43;2.65;;;3.80;75.40;;;;;;5091074;28;20223;-77
2021/04/06 02:45:24;;;;;;;5.20;2.10;;;3.80;74.10;;;;;;5091621;28;20198;-77
2021/04/06 02:47:52;;;;;;;10.05;2.20;;;3.80;74.20;;;;;;5091715;28;20160;-77
2021/04/06 02:50:20;;;;;;;16.05;2.63;;;3.90;74.70;;;;;;5095763;28;20278;-77
2021/04/06 02:52:46;;;;;;;6.88;2.17;;;3.90;74.40;;;;;;5095039;28;20561;-77
2021/04/06 02:55:14;;;;;;;5.28;2.25;;;3.90;74.40;;;;;;5097187;28;20207;-77
2021/04/06 02:57:45;;;;;;;13.05;2.67;;;4.00;74.00;;;;;;5097015;28;20168;-77
2021/04/06 03:00:32;;;;;;;13.50;2.33;;;3.90;74.50;;;;;;5097139;28;20163;-77
2021/04/06 03:03:00;;;;;;;7.38;1.58;;;3.80;75.80;;;;;;5098874;28;20210;-77
2021/04/06 03:05:29;;;;;;;10.05;2.17;;;3.70;77.00;;;;;;5095724;28;20518;-77
2021/04/06 03:07:54;;;;;;;7.45;2.10;;;3.60;77.20;;;;;;5097034;28;20171;-77
2021/04/06 03:10:20;;;;;;;4.90;1.37;;;3.70;77.50;;;;;;5097303;28;20172;-77
2021/04/06 03:12:48;;;;;;;8.23;1.95;;;3.60;76.90;;;;;;5114497;28;20483;-77
2021/04/06 03:15:20;;;;;;;4.68;1.73;;;3.40;76.40;;;;;;5120679;28;20175;-77
2021/04/06 03:17:49;;;;;;;10.40;2.05;;;3.30;76.40;;;;;;5121848;28;20611;-77
2021/04/06 03:20:17;;;;;;;5.47;1.98;;;3.30;76.50;;;;;;5116897;28;20183;-77
2021/04/06 03:22:44;;;;;;;13.18;2.08;;;3.30;76.50;;;;;;5116630;28;20187;-77
2021/04/06 03:25:12;;;;;;;17.52;2.45;;;3.30;76.40;;;;;;5115830;28;20218;-77
2021/04/06 03:27:43;;;;;;;15.20;2.70;;;3.20;75.90;;;;;;5116964;28;20156;-77
2021/04/06 03:30:09;;;;;;;14.55;2.40;;;3.20;75.60;;;;;;5117244;28;20243;-77
2021/04/06 03:32:35;;;;;;;6.55;2.03;;;3.20;75.70;;;;;;5114796;28;20198;-77
2021/04/06 03:35:01;;;;;;;9.87;1.90;;;3.30;75.90;;;;;;5116008;28;20187;-77
2021/04/06 03:37:28;;;;;;;8.67;2.40;;;3.30;75.70;;;;;;5115894;28;20565;-77
2021/04/06 03:39:55;;;;;;;13.75;3.30;;;3.30;76.00;;;;;;5116034;28;20792;-77
2021/04/06 03:42:26;;;;;;;10.65;2.28;;;3.40;75.70;;;;;;5115261;28;20207;-78
2021/04/06 03:45:03;;;;;;;12.85;1.77;;;3.40;75.80;;;;;;5117048;28;20179;-77
2021/04/06 03:47:58;;;;;;;9.73;2.10;;;3.50;76.00;;;;;;5117230;28;20558;-77
2021/04/06 03:50:40;;;;;;;7.10;2.30;;;3.50;76.30;;;;;;5116658;28;20240;-77
2021/04/06 03:53:08;;;;;;;7.75;1.85;;;3.50;76.40;;;;;;5115186;28;20535;-77
2021/04/06 03:55:35;;;;;;;10.25;1.70;;;3.50;76.40;;;;;;5115414;28;20638;-78
2021/04/06 03:58:14;;;;;;;4.70;1.92;;;3.70;76.50;;;;;;5118167;28;20642;-77
2021/04/06 04:00:40;;;;;;;7.72;2.20;;;3.80;76.30;;;;;;5116326;28;20155;-77
2021/04/06 04:03:06;;;;;;;11.55;1.98;;;3.70;76.30;;;;;;5116450;28;20191;-78
2021/04/06 04:05:32;;;;;;;12.63;2.40;;;3.50;76.90;;;;;;5115219;28;20199;-77
2021/04/06 04:07:58;;;;;;;16.50;2.97;;;3.50;77.40;;;;;;5115166;28;20198;-78
2021/04/06 04:10:25;;;;;;;8.90;2.17;;;3.30;78.50;;;;;;5116047;28;20171;-78
2021/04/06 04:12:51;;;;;;;8.70;2.72;;;3.20;79.50;;;;;;5099569;27;20689;-77
2021/04/06 04:15:17;;;;;;;9.90;2.05;;;3.20;80.00;;;;;;5094342;28;20187;-78
2021/04/06 04:17:53;;;;;;;7.60;3.95;;;3.10;80.40;;;;;;5094014;28;20178;-77
2021/04/06 04:20:20;;;;;;;8.90;2.10;;;3.20;80.40;;;;;;5094022;28;20196;-77
2021/04/06 04:22:47;;;;;;;16.15;1.67;;;3.20;80.10;;;;;;5093624;28;20196;-78
2021/04/06 04:25:15;;;;;;;8.32;1.52;;;3.20;79.60;;;;;;5096668;28;20175;-78
2021/04/06 04:27:42;;;;;;;5.82;2.20;;;3.10;78.90;;;;;;5097366;28;20631;-78
2021/04/06 04:30:09;;;;;;;7.32;1.40;;;3.10;78.50;;;;;;5096184;28;20176;-78
2021/04/06 04:32:35;;;;;;;10.25;1.77;;;3.00;78.00;;;;;;5093248;28;20373;-78
2021/04/06 04:35:00;;;;;;;4.47;1.47;;;3.10;77.90;;;;;;5093740;28;20259;-78
2021/04/06 04:37:26;;;;;;;13.20;2.33;;;3.10;77.70;;;;;;5094955;28;20631;-78
2021/04/06 04:39:52;;;;;;;4.77;1.43;;;3.20;77.50;;;;;;5093910;28;20602;-77
2021/04/06 04:42:18;;;;;;;5.73;2.33;;;3.10;77.20;;;;;;5093206;28;20698;-77
2021/04/06 04:44:44;;;;;;;5.43;2.30;;;3.10;77.40;;;;;;5093706;28;20635;-77
2021/04/06 04:47:10;;;;;;;2.92;1.15;;;3.20;77.00;;;;;;5093606;28;20453;-77
2021/04/06 04:49:35;;;;;;;4.40;1.37;;;3.20;76.70;;;;;;5094919;28;20223;-77
2021/04/06 04:52:02;;;;;;;3.30;1.90;;;3.20;76.30;;;;;;5096275;28;20511;-77
2021/04/06 04:54:27;;;;;;;12.20;1.75;;;3.30;76.20;;;;;;5094954;28;20268;-77
2021/04/06 04:56:53;;;;;;;1.83;1.10;;;3.30;76.00;;;;;;5093566;28;20180;-77
2021/04/06 04:59:20;;;;;;;3.88;1.50;;;3.30;76.10;;;;;;5093659;28;20168;-77
2021/04/06 05:01:45;;;;;;;6.90;1.38;;;3.30;76.30;;;;;;5092565;28;20219;-78
2021/04/06 05:04:11;;;;;;;11.37;1.37;;;3.30;76.40;;;;;;5094556;28;20484;-77
2021/04/06 05:06:37;;;;;;;2.93;1.20;;;3.30;76.30;;;;;;5094381;28;20459;-78
2021/04/06 05:09:04;;;;;;;4.40;1.17;;;3.30;76.40;;;;;;5093393;28;20175;-78
2021/04/06 05:11:30;;;;;;;9.57;1.25;;;3.30;76.50;;;;;;5091848;28;20291;-78
2021/04/06 05:13:55;;;;;;;2.88;2.05;;;3.30;77.10;;;;;;5094481;28;20312;-77
2021/04/06 05:16:21;;;;;;;6.17;1.53;;;3.30;76.10;;;;;;5094394;28;20210;-77
2021/04/06 05:18:47;;;;;;;1.97;1.47;;;3.40;75.80;;;;;;5093020;28;20418;-77
2021/04/06 05:21:13;;;;;;;1.63;1.27;;;3.40;75.80;;;;;;5093756;28;20417;-77
2021/04/06 05:23:39;;;;;;;2.77;1.60;;;3.40;75.80;;;;;;5092918;28;20198;-77
2021/04/06 05:26:05;;;;;;;7.67;1.43;;;3.50;76.00;;;;;;5092777;28;20414;-77
2021/04/06 05:28:31;;;;;;;6.53;1.65;;;3.60;76.00;;;;;;5094358;28;20497;-77
2021/04/06 05:30:57;;;;;;;1.87;0.90;;;3.50;75.70;;;;;;5092845;28;20226;-78
2021/04/06 05:33:23;;;;;;;3.40;1.27;;;3.60;75.30;;;;;;5092677;28;20870;-78
2021/04/06 05:35:50;;;;;;;6.22;1.27;;;3.60;75.10;;;;;;5093342;28;20179;-78
2021/04/06 05:38:17;;;;;;;5.72;1.50;;;3.60;74.90;;;;;;5092999;28;20316;-78
2021/04/06 05:40:43;;;;;;;6.70;1.40;;;3.60;74.80;;;;;;5092165;28;20187;-78
2021/04/06 05:43:09;;;;;;;1.80;1.00;;;3.70;74.70;;;;;;5093634;28;20199;-77
2021/04/06 05:45:38;;;;;;;3.08;1.10;;;3.60;74.50;;;;;;5093837;28;20459;-77
2021/04/06 05:48:07;;;;;;;4.55;1.08;;;3.60;74.40;;;;;;5094308;28;20271;-77
2021/04/06 05:50:33;;;;;;;1.50;1.25;;;3.60;74.50;;;;;;5092220;28;20554;-77
2021/04/06 05:53:00;;;;;;;6.82;1.35;;;3.60;74.50;;;;;;5092262;28;20319;-77
2021/04/06 05:55:27;;;;;;;5.93;1.25;;;3.70;75.50;;;;;;5092288;28;20179;-76
2021/04/06 05:57:55;;;;;;;4.28;1.23;;;3.60;74.80;;;;;;5092214;28;20176;-77
2021/04/06 06:00:22;;;;;;;6.13;1.83;;;3.60;74.90;;;;;;5092104;28;20711;-77
2021/04/06 06:02:48;;;;;;;5.82;1.65;;;3.50;75.20;;;;;;5091672;28;20230;-77
2021/04/06 06:05:17;;;;;;;1.50;1.10;;;3.40;75.70;;;;;;5092214;28;20634;-76
2021/04/06 06:07:43;;;;;;;6.20;1.60;;;3.20;77.40;;;;;;5093484;28;20391;-76
2021/04/06 06:10:29;;;;;;;4.90;1.35;;;3.20;78.80;;;;;;5091925;28;20183;-77
2021/04/06 06:13:13;;;;;;;8.63;1.38;;;3.10;80.40;;;;;;5108620;28;20190;-76
2021/04/06 06:15:39;;;;;;;3.10;1.10;;;3.00;80.30;;;;;;5112315;28;20223;-76
2021/04/06 06:18:06;;;;;;;3.83;1.27;;;2.70;81.30;;;;;;5112339;28;20262;-77
2021/04/06 06:20:33;;;;;;;4.00;1.88;;;2.80;82.10;;;;;;5111890;28;20679;-77
2021/04/06 06:23:18;;;;;;;2.08;1.90;;;2.60;83.00;;;;;;5113008;28;20236;-76
2021/04/06 06:26:02;;;;;;;3.42;1.73;;;2.50;83.80;;;;;;5112047;28;20197;-76
2021/04/06 06:28:28;;;;;;;1.77;1.48;;;2.50;84.50;;;;;;5112106;28;20306;-76
2021/04/06 06:30:54;;;;;;;10.52;2.50;;;2.40;84.80;;;;;;5111965;28;20209;-76
2021/04/06 06:33:27;;;;;;;4.40;2.00;;;2.60;84.90;;;;;;5113528;28;20658;-76
2021/04/06 06:35:54;;;;;;;7.25;2.38;;;3.00;84.60;;;;;;5113904;28;20465;-76
2021/04/06 06:38:22;;;;;;;5.45;2.00;;;3.90;83.70;;;;;;5113702;28;20171;-76
2021/04/06 06:40:52;;;;;;;5.65;1.90;;;4.70;80.90;;;;;;5113343;28;20186;-77
2021/04/06 06:43:21;;;;;;;3.53;1.70;;;5.10;78.70;;;;;;5113292;28;20783;-77
2021/04/06 06:45:49;;;;;;;7.18;1.70;;;5.30;76.30;;;;;;5113198;28;20199;-77
2021/04/06 06:48:32;;;;;;;4.85;1.90;;;5.10;75.50;;;;;;5113795;28;20163;-77
2021/04/06 06:51:00;;;;;;;5.38;1.83;;;5.10;74.30;;;;;;5112477;28;20206;-77
2021/04/06 06:53:37;;;;;;;14.05;2.00;;;5.20;74.00;;;;;;5111888;28;20203;-77
2021/04/06 06:56:08;;;;;;;5.85;1.92;;;5.10;73.50;;;;;;5113567;28;20158;-76
2021/04/06 06:58:36;;;;;;;6.07;1.83;;;5.20;73.30;;;;;;5111758;28;20201;-76
2021/04/06 07:01:03;;;;;;;3.85;1.60;;;5.00;73.30;;;;;;5112793;28;20254;-77
2021/04/06 07:03:29;;;;;;;2.53;1.50;;;5.00;73.60;;;;;;5112991;28;20187;-76
2021/04/06 07:05:56;;;;;;;2.90;1.85;;;5.10;73.60;;;;;;5112079;28;20198;-76
2021/04/06 07:08:36;;;;;;;5.80;1.85;;;5.00;73.30;;;;;;5113112;28;20167;-77
2021/04/06 07:11:02;;;;;;;6.10;1.30;;;5.00;73.10;;;;;;5110559;28;20589;-77
2021/04/06 07:13:33;;;;;;;3.75;1.17;;;4.70;73.10;;;;;;5111474;28;20588;-77
2021/04/06 07:16:00;;;;;;;3.10;1.20;;;4.60;73.50;;;;;;5111297;28;20179;-77
2021/04/06 07:18:27;;;;;;;6.10;1.60;;;4.40;73.80;;;;;;5112927;28;20505;-76
2021/04/06 07:21:01;;;;;;;12.13;1.42;;;4.40;74.70;;;;;;5111505;28;20603;-77
2021/04/06 07:23:38;;;;;;;11.07;1.65;;;4.30;75.10;;;;;;5114063;28;20281;-77
2021/04/06 07:26:16;;;;;;;4.32;1.35;;;4.30;75.40;;;;;;5112512;28;20182;-76
2021/04/06 07:28:42;;;;;;;5.82;1.20;;;4.30;75.70;;;;;;5111468;28;20204;-77
2021/04/06 07:31:10;;;;;;;9.65;1.60;;;4.30;75.20;;;;;;5111069;28;20674;-77
2021/04/06 07:33:39;;;;;;;18.55;1.90;;;4.40;74.50;;;;;;5113349;28;20207;-77
2021/04/06 07:36:07;;;;;;;9.80;1.75;;;4.80;74.20;;;;;;5120988;28;20251;-78
2021/04/06 07:38:39;;;;;;;3.83;1.38;;;5.00;73.80;;;;;;5116488;28;20576;-78
2021/04/06 07:41:06;;;;;;;11.15;1.75;;;5.20;72.40;;;;;;5116345;28;20622;-78
2021/04/06 07:43:33;;;;;;;3.75;1.70;;;5.20;71.10;;;;;;5116923;28;20191;-77
2021/04/06 07:45:58;;;;;;;4.63;3.33;;;5.20;71.20;;;;;;5115200;28;20190;-77
2021/04/06 07:48:49;;;;;;;10.50;2.10;;;5.50;71.60;;;;;;5116496;28;20527;-77
2021/04/06 07:51:24;;;;;;;6.60;1.80;;;5.60;70.90;;;;;;5118424;28;20661;-77
2021/04/06 07:54:06;;;;;;;2.97;1.20;;;5.50;70.00;;;;;;5115005;28;20237;-78
2021/04/06 07:56:50;;;;;;;4.13;1.30;;;4.90;70.90;;;;;;5116295;28;20178;-78
2021/04/06 07:59:18;;;;;;;4.68;1.42;;;4.60;72.70;;;;;;5100787;28;20179;-77
2021/04/06 08:01:51;;;;;;;5.07;1.60;;;4.60;73.60;;;;;;5094907;28;20192;-77
2021/04/06 08:04:18;;;;;;;2.95;1.80;;;4.60;73.90;;;;;;5095761;28;20169;-76
2021/04/06 08:06:46;;;;;;;4.80;1.42;;;4.60;73.90;;;;;;5094229;28;20179;-77
2021/04/06 08:09:42;;;;;;;7.57;1.48;;;4.30;73.70;;;;;;5096147;28;20595;-77
2021/04/06 08:12:11;;;;;;;5.03;1.55;;;4.10;73.80;;;;;;5108317;28;20199;-77
2021/04/06 08:15:02;;;;;;;8.32;1.40;;;4.10;74.60;;;;;;5117494;28;20257;-77
2021/04/06 08:17:28;;;;;;;2.42;1.30;;;4.00;74.90;;;;;;5109303;28;20191;-78
2021/04/06 08:19:54;;;;;;;3.83;1.40;;;4.10;75.10;;;;;;5117460;28;20544;-77
2021/04/06 08:22:22;;;;;;;5.85;1.50;;;4.10;75.00;;;;;;5117701;27;20798;-78
2021/04/06 08:24:48;;;;;;;5.45;1.70;;;4.30;75.20;;;;;;5118646;28;20183;-78
2021/04/06 08:27:36;;;;;;;2.28;1.13;;;4.30;75.40;;;;;;5117388;28;20259;-77
2021/04/06 08:30:21;;;;;;;5.78;1.40;;;4.20;75.10;;;;;;5118848;28;20171;-77
2021/04/06 08:32:56;;;;;;;1.45;1.35;;;4.50;75.50;;;;;;5117713;28;20195;-77
2021/04/06 08:35:47;;;;;;;1.85;1.10;;;4.70;75.50;;;;;;5115710;28;20199;-77
2021/04/06 08:38:22;;;;;;;7.45;1.13;;;4.90;74.80;;;;;;5114318;28;20175;-77
2021/04/06 08:40:54;;;;;;;4.65;1.60;;;5.10;73.80;;;;;;5114267;28;20245;-78
2021/04/06 08:43:50;;;;;;;1.92;1.05;;;4.20;73.70;;;;;;5115149;28;20298;-77
2021/04/06 08:46:37;;;;;;;2.33;0.95;;;3.20;77.40;;;;;;5114543;28;20187;-77
2021/04/06 08:49:40;;;;;;;3.40;1.65;;;2.70;80.60;;;;;;5102251;28;20199;-77
2021/04/06 08:52:12;;;;;;;3.00;1.98;;;2.50;82.30;;;;;;5101326;28;20222;-77
2021/04/06 08:54:37;;;;;;;3.42;1.50;;;2.60;83.70;;;;;;5115103;28;20206;-77
2021/04/06 08:57:08;;;;;;;2.40;2.20;;;2.40;84.20;;;;;;5113663;28;20698;-77
2021/04/06 08:59:39;;;;;;;10.23;1.60;;;2.30;84.90;;;;;;5096774;28;20931;-77
2021/04/06 09:02:16;;;;;;;3.92;2.20;;;2.30;85.40;;;;;;5092505;28;20200;-78
2021/04/06 09:04:47;;;;;;;6.10;1.70;;;2.30;85.70;;;;;;5094377;28;20179;-78
2021/04/06 09:07:24;;;;;;;5.78;1.75;;;2.40;85.90;;;;;;5094417;28;20187;-78
2021/04/06 09:10:01;;;;;;;3.65;1.90;;;2.40;86.00;;;;;;5094824;28;20172;-77
2021/04/06 09:12:36;;;;;;;7.00;2.30;;;2.70;86.10;;;;;;5105475;28;20383;-78
2021/04/06 09:15:03;;;;;;;7.43;1.80;;;2.80;85.30;;;;;;5113546;28;20203;-78
2021/04/06 09:17:33;;;;;;;8.43;1.85;;;3.00;84.30;;;;;;5113415;28;20186;-78
2021/04/06 09:20:05;;;;;;;15.95;2.15;;;3.20;82.90;;;;;;5114149;28;20171;-77
2021/04/06 09:22:32;;;;;;;4.82;1.55;;;3.30;81.60;;;;;;5113938;28;20553;-78
2021/04/06 09:24:57;;;;;;;4.20;1.98;;;3.30;79.90;;;;;;5115332;28;20183;-78
2021/04/06 09:27:23;;;;;;;7.47;1.60;;;3.30;79.00;;;;;;5114738;28;20240;-78
2021/04/06 09:29:50;;;;;;;2.57;1.30;;;3.40;78.60;;;;;;5114048;28;20179;-78
2021/04/06 09:32:21;;;;;;;3.33;1.38;;;3.40;78.20;;;;;;5112018;28;20459;-78
2021/04/06 09:34:50;;;;;;;9.45;1.35;;;3.60;78.30;;;;;;5114014;27;20202;-78
2021/04/06 09:37:21;;;;;;;5.30;2.08;;;3.70;78.60;;;;;;5114069;28;20635;-78
2021/04/06 09:39:49;;;;;;;6.68;1.48;;;4.10;79.00;;;;;;5112465;28;20179;-78
2021/04/06 09:42:15;;;;;;;1.58;1.05;;;4.30;78.10;;;;;;5113780;28;20674;-76
2021/04/06 09:44:42;;;;;;;8.63;1.73;;;4.50;77.00;;;;;;5112719;28;20186;-78
2021/04/06 09:47:13;;;;;;;2.85;1.45;;;4.50;76.70;;;;;;5113126;28;20187;-78
2021/04/06 09:49:45;;;;;;;4.63;1.63;;;4.80;76.90;;;;;;5114357;28;20240;-78
2021/04/06 09:52:18;;;;;;;4.53;1.52;;;5.10;76.80;;;;;;5112813;28;20206;-78
2021/04/06 09:54:53;;;;;;;8.55;1.80;;;5.30;76.70;;;;;;5114450;28;20202;-78
2021/04/06 09:57:20;;;;;;;5.53;1.63;;;5.40;75.90;;;;;;5113492;28;20249;-78
2021/04/06 09:59:52;;;;;;;3.92;1.30;;;5.30;75.00;;;;;;5112151;28;20179;-78
2021/04/06 10:02:20;;;;;;;4.07;1.88;;;5.20;75.20;;;;;;5112976;28;20617;-78
2021/04/06 10:04:47;;;;;;;3.65;1.27;;;5.20;74.40;;;;;;5112348;28;20633;-78
2021/04/06 10:07:18;;;;;;;3.22;1.73;;;5.00;74.10;;;;;;5113485;28;20220;-77
2021/04/06 10:09:56;;;;;;;3.08;1.38;;;4.90;74.20;;;;;;5112537;28;20541;-78
2021/04/06 10:12:23;;;;;;;3.58;1.45;;;4.90;74.80;;;;;;5099732;28;20539;-78
2021/04/06 10:14:49;;;;;;;2.22;1.20;;;5.00;73.60;;;;;;5092033;28;20235;-78
2021/04/06 10:17:16;;;;;;;10.25;1.15;;;5.00;72.90;;;;;;5091824;28;20179;-77
2021/04/06 10:19:56;;;;;;;3.00;1.30;;;4.90;72.10;;;;;;5093409;28;20199;-77
2021/04/06 10:22:25;;;;;;;3.50;1.10;;;4.80;71.40;;;;;;5092645;28;20584;-78
2021/04/06 10:24:58;;;;;;;8.02;1.67;;;4.70;71.50;;;;;;5091843;28;20611;-77
2021/04/06 10:27:35;;;;;;;6.10;1.35;;;4.90;71.90;;;;;;5092439;28;20183;-77
2021/04/06 10:30:04;;;;;;;4.15;3.15;;;5.30;72.30;;;;;;5092243;28;20172;-77
2021/04/06 10:32:36;;;;;;;6.38;1.85;;;5.50;72.20;;;;;;5092463;28;20274;-78
2021/04/06 10:35:26;;;;;;;8.68;1.73;;;5.50;71.70;;;;;;5091881;28;20620;-78
2021/04/06 10:37:55;;;;;;;1.63;1.27;;;5.50;72.70;;;;;;5092306;28;20186;-77
2021/04/06 10:40:32;;;;;;;1.70;1.40;;;5.50;72.50;;;;;;5093283;28;20213;-78
2021/04/06 10:43:15;;;;;;;3.20;1.60;;;5.20;74.20;;;;;;5093260;28;20215;-78
2021/04/06 10:45:57;;;;;;;2.20;1.20;;;4.70;74.50;;;;;;5095350;28;20206;-77
2021/04/06 10:48:25;;;;;;;2.55;1.20;;;4.30;75.70;;;;;;5095937;28;20187;-78
2021/04/06 10:51:09;;;;;;;8.00;2.13;;;3.90;77.00;;;;;;5091016;28;20244;-78
2021/04/06 10:53:45;;;;;;;5.50;2.13;;;3.60;78.50;;;;;;5091678;28;20211;-78
2021/04/06 10:56:17;;;;;;;3.90;1.73;;;3.10;80.40;;;;;;5093102;28;20167;-78
2021/04/06 10:58:46;;;;;;;2.90;1.80;;;3.20;81.80;;;;;;5100934;28;20167;-78
2021/04/06 11:01:15;;;;;;;7.78;1.80;;;3.40;82.20;;;;;;5111402;28;20177;-78
2021/04/06 11:03:50;;;;;;;3.17;1.70;;;3.50;82.40;;;;;;5113321;28;20232;-78
2021/04/06 11:06:28;;;;;;;5.82;2.88;;;3.50;82.70;;;;;;5113246;28;20345;-78
2021/04/06 11:08:55;;;;;;;2.97;1.60;;;3.70;82.70;;;;;;5111533;28;20190;-78
2021/04/06 11:11:27;;;;;;;4.65;1.95;;;3.60;81.60;;;;;;5110343;28;20168;-78
2021/04/06 11:13:55;;;;;;;3.72;2.05;;;3.70;81.20;;;;;;5096173;28;20237;-78
2021/04/06 11:16:21;;;;;;;1.73;1.48;;;3.80;80.10;;;;;;5101309;28;20206;-78
2021/04/06 11:19:05;;;;;;;2.88;1.00;;;3.80;79.10;;;;;;5096779;28;20648;-78
2021/04/06 11:21:33;;;;;;;2.40;1.73;;;3.90;79.40;;;;;;5095980;28;20196;-78
2021/04/06 11:23:59;;;;;;;5.72;2.03;;;4.00;79.20;;;;;;5094939;28;20568;-78
2021/04/06 11:26:25;;;;;;;2.70;1.33;;;3.80;78.80;;;;;;5096252;28;20183;-78
2021/04/06 11:28:51;;;;;;;3.40;1.52;;;3.90;79.30;;;;;;5094550;28;20417;-78
2021/04/06 11:31:17;;;;;;;3.67;1.48;;;4.00;79.40;;;;;;5094029;28;20186;-78
2021/04/06 11:33:43;;;;;;;2.93;1.40;;;4.20;79.40;;;;;;5095872;28;20207;-78
2021/04/06 11:36:09;;;;;;;6.37;1.80;;;4.10;77.60;;;;;;5094448;28;20414;-78
2021/04/06 11:38:35;;;;;;;4.93;1.30;;;4.10;77.20;;;;;;5094428;28;20461;-78
2021/04/06 11:41:03;;;;;;;2.70;1.53;;;4.10;77.40;;;;;;5093760;28;20208;-78
2021/04/06 11:43:29;;;;;;;3.97;1.50;;;4.20;77.30;;;;;;5095474;28;20191;-78
2021/04/06 11:45:54;;;;;;;3.00;1.30;;;4.20;78.20;;;;;;5094282;28;20232;-78
2021/04/06 11:48:21;;;;;;;2.80;1.27;;;4.10;78.40;;;;;;5094403;28;20267;-78
2021/04/06 11:50:47;;;;;;;3.15;1.10;;;4.30;79.20;;;;;;5093611;28;20633;-78
2021/04/06 11:53:13;;;;;;;2.30;0.90;;;4.20;77.30;;;;;;5094104;28;20302;-78
2021/04/06 11:55:39;;;;;;;1.80;0.88;;;4.20;77.10;;;;;;5094233;28;20249;-78
2021/04/06 11:58:05;;;;;;;1.60;1.20;;;3.90;77.20;;;;;;5099063;28;20648;-78
2021/04/06 12:00:32;;;;;;;1.40;1.10;;;3.90;77.40;;;;;;5113809;28;20171;-78
2021/04/06 12:02:57;;;;;;;2.55;1.40;;;4.00;76.50;;;;;;5114262;28;20207;-78
2021/04/06 12:05:24;;;;;;;2.80;1.10;;;4.00;77.10;;;;;;5116106;28;20478;-78
2021/04/06 12:07:50;;;;;;;1.80;0.88;;;4.00;78.50;;;;;;5115634;28;20193;-78
2021/04/06 12:10:18;;;;;;;0.90;0.90;;;3.60;79.60;;;;;;5117867;28;20175;-78
2021/04/06 12:12:43;;;;;;;2.47;0.80;;;3.60;80.90;;;;;;5101851;28;20442;-78
2021/04/06 12:15:10;;;;;;;0.77;0.70;;;3.30;81.50;;;;;;5095190;28;20535;-78
2021/04/06 12:17:35;;;;;;;3.63;1.10;;;3.30;82.80;;;;;;5093695;28;20585;-78
2021/04/06 12:20:02;;;;;;;1.20;0.80;;;3.20;81.80;;;;;;5093673;28;20172;-78
2021/04/06 12:22:28;;;;;;;2.05;1.08;;;3.20;81.60;;;;;;5093100;28;20437;-78
2021/04/06 12:24:54;;;;;;;4.40;1.20;;;3.30;81.70;;;;;;5095042;28;20594;-78
2021/04/06 12:27:20;;;;;;;4.20;1.20;;;3.40;81.00;;;;;;5094819;28;20229;-78
2021/04/06 12:29:45;;;;;;;4.93;1.50;;;3.40;81.00;;;;;;5093592;28;20783;-77
2021/04/06 12:32:11;;;;;;;4.83;1.60;;;3.50;80.70;;;;;;5094352;28;20191;-78
2021/04/06 12:34:38;;;;;;;5.53;1.27;;;3.50;79.60;;;;;;5093403;28;20460;-77
2021/04/06 12:37:03;;;;;;;4.15;1.48;;;3.60;79.50;;;;;;5094812;28;20413;-77
2021/04/06 12:39:29;;;;;;;6.00;1.13;;;3.70;78.40;;;;;;5094429;28;20168;-77
2021/04/06 12:41:55;;;;;;;8.63;1.60;;;4.00;78.50;;;;;;5092629;28;20591;-78
2021/04/06 12:44:20;;;;;;;3.07;1.40;;;4.10;78.20;;;;;;5092913;28;20219;-78
2021/04/06 12:46:46;;;;;;;3.53;1.90;;;4.40;78.00;;;;;;5093083;28;20221;-78
2021/04/06 12:49:12;;;;;;;3.43;1.37;;;4.60;76.60;;;;;;5093019;28;20723;-78
2021/04/06 12:51:37;;;;;;;3.73;2.03;;;4.90;77.10;;;;;;5093911;28;20191;-78
2021/04/06 12:54:07;;;;;;;4.53;1.17;;;5.20;76.90;;;;;;5092937;28;20200;-78
2021/04/06 12:56:32;;;;;;;1.52;1.42;;;5.20;74.30;;;;;;5093063;28;20179;-78
2021/04/06 12:58:58;;;;;;;1.53;0.80;;;5.30;73.90;;;;;;5105627;28;20539;-78
2021/04/06 13:01:24;;;;;;;1.30;0.70;;;5.00;73.60;;;;;;5112962;28;20602;-77
2021/04/06 13:03:49;;;;;;;1.27;0.87;;;4.90;75.70;;;;;;5113852;28;20183;-77
2021/04/06 13:06:15;;;;;;;5.43;1.30;;;4.50;77.10;;;;;;5120632;28;20190;-77
2021/04/06 13:08:41;;;;;;;3.13;1.30;;;4.40;78.00;;;;;;5115073;28;20209;-77
2021/04/06 13:11:07;;;;;;;1.10;1.00;;;4.10;78.40;;;;;;5113380;28;20433;-77